Muzambinho, Brazil
Current Conditions -  °F | °C
As of 10:00 AM on Friday 19 Dec 2014 (Local Time) from SBPC Reporting Station
Broken Clouds Broken Clouds  
Wind Chill: 77°   Ceiling: 1500
Heat Index: 79°   Visibility: 6mi
Dew Point: 66°   Wind: 2mph
Humidity: 69%   Direction: 360°N
Pressure: 30.03"   Gusts: NA
Location:  21.38°S, 46.53°W
Report Text: SBPC 191200Z 36002KT 9999 BKN015 25/19 Q1017
Loading
Personal Weather Stations






























Interactive Weather Map New forecast layout! Learn more

10-Day Weather Forecast

Advertisements
Track Severe Weather on mobile